createdAt,value
2022-12-08T00:02:02.289Z,72.60
2022-12-08T00:04:50.696Z,72.40
2022-12-08T00:07:36.608Z,72.40
2022-12-08T00:10:25.258Z,72.60
2022-12-08T00:12:53.303Z,72.40
2022-12-08T00:15:22.810Z,72.50
2022-12-08T00:17:50.905Z,72.40
2022-12-08T00:20:19.211Z,72.50
2022-12-08T00:22:47.390Z,72.50
2022-12-08T00:25:15.857Z,72.40
2022-12-08T00:27:43.998Z,72.30
2022-12-08T00:30:12.766Z,72.40
2022-12-08T00:32:44.794Z,72.40
2022-12-08T00:35:12.990Z,72.20
2022-12-08T00:37:41.159Z,72.10
2022-12-08T00:40:10.508Z,72.00
2022-12-08T00:42:38.623Z,72.00
2022-12-08T00:45:07.986Z,71.90
2022-12-08T00:47:36.196Z,71.90
2022-12-08T00:50:07.321Z,71.90
2022-12-08T00:52:35.731Z,71.90
2022-12-08T00:55:04.127Z,71.90
2022-12-08T00:57:32.247Z,71.90
2022-12-08T01:00:00.557Z,72.10
2022-12-08T01:02:28.837Z,72.20
2022-12-08T01:04:57.093Z,72.20
2022-12-08T01:07:26.696Z,72.20
2022-12-08T01:09:54.875Z,72.40
2022-12-08T01:12:23.029Z,72.40
2022-12-08T01:14:51.278Z,72.50
2022-12-08T01:17:19.369Z,72.40
2022-12-08T01:19:47.576Z,72.50
2022-12-08T01:22:15.734Z,72.60
2022-12-08T01:24:45.264Z,72.80
2022-12-08T01:27:13.448Z,72.80
2022-12-08T01:29:41.683Z,73.00
2022-12-08T01:32:09.888Z,73.00
2022-12-08T01:34:38.020Z,73.00
2022-12-08T01:37:06.215Z,73.10
2022-12-08T01:39:34.330Z,73.20
2022-12-08T01:42:03.834Z,73.30
2022-12-08T01:44:54.020Z,73.40
2022-12-08T01:47:23.958Z,73.40
2022-12-08T01:49:52.276Z,73.50
2022-12-08T01:52:27.951Z,73.40
2022-12-08T01:55:00.905Z,73.50
2022-12-08T01:57:35.197Z,73.50
2022-12-08T02:00:09.229Z,73.50
2022-12-08T02:02:54.614Z,73.60
2022-12-08T02:05:24.947Z,73.70
2022-12-08T02:07:54.576Z,73.70
2022-12-08T02:10:24.852Z,73.80
2022-12-08T02:12:56.256Z,73.80
2022-12-08T02:15:33.077Z,73.80
2022-12-08T02:18:15.137Z,73.80
2022-12-08T02:20:51.537Z,73.90
2022-12-08T02:23:30.318Z,73.90
2022-12-08T02:26:23.526Z,74.00
2022-12-08T02:29:26.000Z,74.10
2022-12-08T02:32:07.043Z,74.10
2022-12-08T02:34:42.322Z,74.10
2022-12-08T02:37:18.074Z,74.10
2022-12-08T02:39:55.093Z,74.10
2022-12-08T02:42:29.201Z,74.10
2022-12-08T02:45:01.511Z,74.10
2022-12-08T02:47:32.899Z,74.20
2022-12-08T02:50:02.811Z,74.20
2022-12-08T02:52:42.478Z,74.30
2022-12-08T02:55:16.963Z,74.20
2022-12-08T02:57:57.772Z,74.20
2022-12-08T03:00:28.902Z,74.20
2022-12-08T03:03:11.276Z,74.20
2022-12-08T03:05:57.117Z,74.20
2022-12-08T03:08:33.784Z,74.30
2022-12-08T03:11:06.877Z,74.30
2022-12-08T03:13:41.592Z,74.30
2022-12-08T03:16:13.113Z,74.30
2022-12-08T03:18:49.661Z,74.30
2022-12-08T03:21:20.643Z,74.20
2022-12-08T03:23:52.405Z,74.30
2022-12-08T03:26:26.141Z,74.40
2022-12-08T03:28:54.356Z,74.40
2022-12-08T03:31:26.644Z,74.30
2022-12-08T03:33:57.878Z,74.50
2022-12-08T03:36:28.105Z,74.50
2022-12-08T03:38:56.786Z,74.50
2022-12-08T03:41:25.299Z,74.60
2022-12-08T03:43:55.690Z,74.60
2022-12-08T03:48:53.081Z,74.70
2022-12-08T03:51:21.224Z,74.60
2022-12-08T03:53:50.787Z,74.50
2022-12-08T03:56:25.944Z,74.40
2022-12-08T03:58:55.316Z,74.40
2022-12-08T04:01:24.186Z,74.40
2022-12-08T04:03:52.482Z,74.40
2022-12-08T04:06:21.478Z,74.50
2022-12-08T04:08:51.947Z,74.40
2022-12-08T04:11:20.685Z,74.30
2022-12-08T04:13:48.876Z,74.50
2022-12-08T04:16:19.156Z,74.40
2022-12-08T04:18:47.672Z,74.40
2022-12-08T04:21:16.778Z,74.30
2022-12-08T04:23:45.259Z,74.30
2022-12-08T04:26:15.563Z,74.30
2022-12-08T04:28:43.876Z,74.20
2022-12-08T04:31:12.164Z,74.30
2022-12-08T04:33:40.604Z,74.20
2022-12-08T04:36:09.855Z,74.30
2022-12-08T04:38:38.347Z,74.40
2022-12-08T04:41:06.748Z,74.50
2022-12-08T04:43:36.793Z,74.70
2022-12-08T04:46:08.490Z,74.70
2022-12-08T04:48:39.153Z,74.70
2022-12-08T04:51:08.089Z,74.70
2022-12-08T04:53:36.231Z,74.90
2022-12-08T04:56:04.461Z,74.80
2022-12-08T04:58:32.579Z,74.80
2022-12-08T05:01:02.716Z,74.80
2022-12-08T05:03:30.930Z,74.80
2022-12-08T05:06:00.991Z,74.90
2022-12-08T05:08:29.646Z,74.90
2022-12-08T05:11:03.925Z,74.80
2022-12-08T05:13:32.204Z,74.90
2022-12-08T05:16:10.930Z,74.90
2022-12-08T05:18:40.337Z,75.00
2022-12-08T05:21:09.207Z,74.90
2022-12-08T05:23:37.762Z,75.00
2022-12-08T05:26:06.047Z,75.10
2022-12-08T05:28:43.370Z,75.20
2022-12-08T05:31:14.918Z,75.20
2022-12-08T05:33:43.328Z,75.20
2022-12-08T05:36:13.052Z,75.10
2022-12-08T05:38:41.545Z,75.20
2022-12-08T05:41:10.506Z,75.20
2022-12-08T05:43:38.662Z,75.30
2022-12-08T05:46:08.130Z,75.30
2022-12-08T05:48:38.317Z,75.30
2022-12-08T05:51:08.835Z,75.30
2022-12-08T05:53:37.026Z,75.40
2022-12-08T05:56:05.480Z,75.40
2022-12-08T05:58:33.591Z,75.40
2022-12-08T06:01:01.753Z,75.30
2022-12-08T06:03:29.982Z,75.40
2022-12-08T06:05:59.688Z,75.30
2022-12-08T06:08:27.889Z,75.30
2022-12-08T06:10:56.205Z,75.50
2022-12-08T06:13:24.345Z,75.50
2022-12-08T06:15:52.535Z,75.70
2022-12-08T06:18:20.698Z,75.50
2022-12-08T06:20:49.483Z,75.50
2022-12-08T06:23:19.091Z,75.50
2022-12-08T06:25:47.422Z,75.60
2022-12-08T06:28:15.540Z,75.40
2022-12-08T06:30:43.719Z,75.50
2022-12-08T06:33:11.911Z,75.50
2022-12-08T06:35:40.077Z,75.60
2022-12-08T06:38:08.263Z,75.60
2022-12-08T06:40:37.841Z,75.50
2022-12-08T06:43:06.165Z,75.50
2022-12-08T06:45:34.395Z,75.50
2022-12-08T06:48:03.120Z,75.50
2022-12-08T06:50:32.668Z,75.30
2022-12-08T06:53:05.178Z,75.30
2022-12-08T06:58:24.497Z,75.50
2022-12-08T07:00:52.711Z,75.40
2022-12-08T07:03:21.033Z,75.40
2022-12-08T07:05:49.271Z,75.30
2022-12-08T07:08:17.556Z,75.30
2022-12-08T07:10:45.798Z,75.30
2022-12-08T07:13:13.950Z,75.30
2022-12-08T07:15:43.414Z,75.20
2022-12-08T07:18:11.625Z,75.20
2022-12-08T07:20:40.365Z,75.10
2022-12-08T07:23:08.532Z,75.10
2022-12-08T07:25:36.832Z,75.00
2022-12-08T07:28:10.325Z,74.90
2022-12-08T07:30:39.022Z,75.10
2022-12-08T07:33:08.698Z,74.90
2022-12-08T07:35:36.852Z,75.00
2022-12-08T07:38:05.042Z,74.90
2022-12-08T07:40:33.189Z,74.80
2022-12-08T07:43:01.323Z,74.90
2022-12-08T07:45:31.711Z,74.90
2022-12-08T07:48:00.422Z,74.80
2022-12-08T07:50:30.053Z,74.90
2022-12-08T07:52:58.200Z,74.80
2022-12-08T07:55:26.789Z,74.90
2022-12-08T07:57:54.999Z,74.80
2022-12-08T08:00:23.438Z,74.80
2022-12-08T08:02:51.619Z,74.80
2022-12-08T08:05:20.756Z,74.80
2022-12-08T08:07:50.323Z,74.80
2022-12-08T08:10:18.978Z,74.70
2022-12-08T08:12:47.658Z,74.70
2022-12-08T08:15:18.979Z,74.70
2022-12-08T08:17:50.922Z,74.80
2022-12-08T08:20:19.922Z,74.80
2022-12-08T08:22:51.373Z,74.80
2022-12-08T08:25:22.343Z,74.70
2022-12-08T08:27:50.657Z,74.50
2022-12-08T08:30:21.018Z,74.80
2022-12-08T08:32:49.689Z,74.80
2022-12-08T08:35:18.297Z,74.70
2022-12-08T08:37:49.123Z,74.60
2022-12-08T08:40:19.208Z,74.70
2022-12-08T08:42:47.354Z,74.60
2022-12-08T08:45:15.543Z,74.60
2022-12-08T08:47:43.835Z,74.70
2022-12-08T08:50:12.109Z,74.70
2022-12-08T08:52:40.365Z,74.50
2022-12-08T08:55:09.027Z,74.50
2022-12-08T08:57:38.582Z,74.40
2022-12-08T09:00:10.123Z,74.20
2022-12-08T09:02:38.586Z,74.20
2022-12-08T09:05:08.167Z,74.30
2022-12-08T09:07:36.466Z,74.10
2022-12-08T09:10:06.138Z,74.10
2022-12-08T09:12:34.395Z,74.00
2022-12-08T09:15:03.927Z,73.80
2022-12-08T09:17:32.113Z,73.70
2022-12-08T09:20:01.386Z,73.30
2022-12-08T09:22:29.611Z,73.50
2022-12-08T09:24:57.850Z,73.30
2022-12-08T09:27:25.969Z,73.20
2022-12-08T09:29:54.211Z,73.00
2022-12-08T09:32:26.257Z,72.70
2022-12-08T09:34:54.750Z,72.50
2022-12-08T09:37:22.922Z,72.20
2022-12-08T09:39:51.030Z,72.00
2022-12-08T09:42:28.649Z,71.70
2022-12-08T09:45:03.645Z,71.60
2022-12-08T09:47:38.876Z,71.40
2022-12-08T09:50:13.990Z,71.30
2022-12-08T09:52:45.633Z,71.10
2022-12-08T09:55:20.566Z,71.00
2022-12-08T09:57:58.832Z,70.80
2022-12-08T10:00:27.207Z,70.60
2022-12-08T10:02:57.203Z,70.70
2022-12-08T10:05:27.565Z,70.70
2022-12-08T10:08:07.299Z,70.50
2022-12-08T10:10:41.058Z,70.30
2022-12-08T10:13:18.063Z,70.10
2022-12-08T10:15:52.037Z,69.60
2022-12-08T10:18:26.256Z,69.40
2022-12-08T10:20:55.564Z,69.20
2022-12-08T10:23:29.494Z,69.30
2022-12-08T10:26:02.692Z,69.30
2022-12-08T10:28:30.882Z,69.50
2022-12-08T10:30:59.019Z,69.40
2022-12-08T10:33:30.262Z,69.30
2022-12-08T10:36:02.964Z,69.30
2022-12-08T10:38:33.141Z,69.20
2022-12-08T10:41:07.586Z,69.10
2022-12-08T10:43:39.281Z,68.90
2022-12-08T10:46:13.555Z,68.90
2022-12-08T10:48:51.557Z,68.80
2022-12-08T10:51:29.983Z,68.70
2022-12-08T10:53:59.262Z,68.40
2022-12-08T10:56:29.891Z,68.40
2022-12-08T10:59:12.987Z,68.40
2022-12-08T11:01:42.553Z,68.50
2022-12-08T11:04:18.238Z,68.50
2022-12-08T11:06:47.254Z,68.90
2022-12-08T11:09:38.208Z,68.80
2022-12-08T11:12:14.103Z,69.00
2022-12-08T11:14:50.988Z,69.00
2022-12-08T11:17:27.422Z,68.80
2022-12-08T11:20:02.425Z,68.90
2022-12-08T11:22:33.879Z,68.90
2022-12-08T11:25:04.978Z,68.90
2022-12-08T11:27:35.167Z,68.90
2022-12-08T11:30:06.254Z,68.90
2022-12-08T11:32:40.515Z,68.80
2022-12-08T11:35:16.359Z,68.80
2022-12-08T11:37:45.431Z,68.80
2022-12-08T11:40:21.338Z,68.80
2022-12-08T11:42:59.256Z,68.80
2022-12-08T11:45:31.310Z,68.70
2022-12-08T11:48:08.472Z,68.70
2022-12-08T11:50:44.586Z,68.60
2022-12-08T11:53:20.692Z,68.40
2022-12-08T11:55:53.532Z,68.40
2022-12-08T11:58:26.679Z,68.40
2022-12-08T12:00:54.971Z,68.20
2022-12-08T12:03:29.984Z,68.10
2022-12-08T12:06:38.085Z,68.20
2022-12-08T12:09:14.900Z,68.10
2022-12-08T12:12:11.662Z,68.40
2022-12-08T12:15:08.650Z,68.50
2022-12-08T12:17:44.942Z,68.50
2022-12-08T12:20:19.407Z,68.60
2022-12-08T12:22:56.455Z,68.60
2022-12-08T12:25:26.602Z,68.40
2022-12-08T12:28:00.452Z,68.90
2022-12-08T12:30:32.391Z,68.80
2022-12-08T12:33:02.830Z,68.60
2022-12-08T12:35:35.703Z,68.80
2022-12-08T12:38:30.512Z,68.50
2022-12-08T12:41:03.217Z,68.20
2022-12-08T12:43:36.418Z,68.00
2022-12-08T12:46:43.028Z,67.30
2022-12-08T12:49:50.743Z,67.60
2022-12-08T12:52:47.952Z,67.00
2022-12-08T12:55:57.176Z,66.50
2022-12-08T12:58:54.725Z,65.80
2022-12-08T13:01:50.053Z,65.60
2022-12-08T13:04:18.807Z,65.20
2022-12-08T13:06:50.498Z,65.20
2022-12-08T13:09:25.223Z,64.40
2022-12-08T13:11:56.969Z,64.00
2022-12-08T13:14:35.456Z,64.00
2022-12-08T13:17:08.947Z,63.80
2022-12-08T13:19:38.515Z,63.50
2022-12-08T13:22:45.455Z,63.30
2022-12-08T13:25:51.125Z,63.50
2022-12-08T13:28:22.205Z,63.40
2022-12-08T13:30:52.791Z,63.30
2022-12-08T13:33:25.993Z,63.20
2022-12-08T13:36:03.379Z,62.80
2022-12-08T13:38:35.559Z,62.50
2022-12-08T13:41:09.771Z,62.30
2022-12-08T13:44:02.237Z,62.60
2022-12-08T13:56:51.326Z,62.40
2022-12-08T13:58:21.701Z,62.10
2022-12-08T14:01:05.727Z,62.30
2022-12-08T14:04:04.719Z,62.50
2022-12-08T14:06:38.203Z,62.40
2022-12-08T14:09:12.101Z,62.80
2022-12-08T14:11:42.321Z,63.10
2022-12-08T14:14:27.293Z,62.70
2022-12-08T14:17:06.924Z,63.00
2022-12-08T14:19:36.935Z,63.00
2022-12-08T14:22:12.959Z,63.10
2022-12-08T14:24:45.295Z,63.20
2022-12-08T14:27:17.194Z,63.50
2022-12-08T14:29:47.704Z,63.60
2022-12-08T14:32:25.657Z,63.40
2022-12-08T14:35:03.817Z,63.80
2022-12-08T14:37:34.487Z,63.80
2022-12-08T14:40:05.883Z,63.80
2022-12-08T14:42:44.593Z,63.70
2022-12-08T14:45:15.750Z,64.10
2022-12-08T14:47:43.945Z,64.10
2022-12-08T14:50:42.948Z,64.10
2022-12-08T14:53:15.989Z,64.40
2022-12-08T14:55:45.906Z,64.50
2022-12-08T14:58:20.562Z,64.50
2022-12-08T15:00:51.576Z,64.60
2022-12-08T15:03:22.734Z,64.80
2022-12-08T15:05:54.381Z,64.80
2022-12-08T15:08:22.722Z,64.80
2022-12-08T15:11:19.028Z,64.80
2022-12-08T15:13:49.054Z,64.80
2022-12-08T15:16:27.855Z,64.80
2022-12-08T15:19:18.984Z,64.90
2022-12-08T15:21:48.739Z,65.10
2022-12-08T15:24:17.904Z,65.20
2022-12-08T15:26:48.084Z,65.30
2022-12-08T15:29:21.860Z,65.50
2022-12-08T15:31:50.384Z,65.60
2022-12-08T15:34:18.743Z,65.70
2022-12-08T15:36:50.534Z,65.80
2022-12-08T15:39:32.712Z,66.00
2022-12-08T15:42:03.432Z,66.10
2022-12-08T15:44:32.810Z,66.30
2022-12-08T15:47:01.336Z,66.60
2022-12-08T15:49:29.801Z,66.90
2022-12-08T15:52:11.103Z,67.10
2022-12-08T15:54:40.116Z,67.20
2022-12-08T15:57:19.480Z,67.40
2022-12-08T15:59:48.757Z,67.90
2022-12-08T16:02:22.375Z,68.00
2022-12-08T16:07:41.588Z,68.20
2022-12-08T16:10:16.217Z,68.40
2022-12-08T16:15:59.361Z,68.70
2022-12-08T16:18:31.863Z,68.90
2022-12-08T16:21:16.894Z,69.00
2022-12-08T16:23:49.775Z,69.10
2022-12-08T16:27:01.167Z,69.30
2022-12-08T16:29:09.600Z,69.40
2022-12-08T16:31:38.155Z,69.70
2022-12-08T16:34:06.372Z,69.80
2022-12-08T16:36:34.544Z,69.90
2022-12-08T16:39:04.885Z,70.10
2022-12-08T16:41:50.375Z,70.10
2022-12-08T16:44:18.583Z,70.10
2022-12-08T16:46:46.755Z,70.20
2022-12-08T16:49:15.731Z,70.30
2022-12-08T16:51:44.825Z,70.30
2022-12-08T16:54:14.435Z,70.30
2022-12-08T16:56:42.550Z,70.30
2022-12-08T16:59:10.699Z,70.30
2022-12-08T17:01:38.985Z,70.40
2022-12-08T17:04:30.443Z,70.50
2022-12-08T17:06:55.379Z,70.40
2022-12-08T17:09:24.891Z,70.50
2022-12-08T17:12:00.293Z,70.50
2022-12-08T17:14:34.109Z,70.60
2022-12-08T17:17:02.449Z,70.70
2022-12-08T17:19:30.716Z,70.70
2022-12-08T17:21:58.862Z,70.80
2022-12-08T17:24:29.517Z,70.80
2022-12-08T17:26:58.397Z,70.90
2022-12-08T17:29:26.743Z,71.10
2022-12-08T17:31:55.014Z,71.20
2022-12-08T17:34:23.327Z,71.30
2022-12-08T17:36:51.632Z,71.40
2022-12-08T17:39:20.148Z,71.40
2022-12-08T17:41:49.800Z,71.50
2022-12-08T17:44:19.889Z,71.50
2022-12-08T17:46:52.495Z,71.50
2022-12-08T17:49:24.620Z,71.60
2022-12-08T17:51:55.939Z,71.70
2022-12-08T17:54:24.411Z,71.70
2022-12-08T17:56:56.287Z,71.80
2022-12-08T17:59:24.928Z,71.90
2022-12-08T18:01:53.853Z,71.90
2022-12-08T18:04:22.169Z,72.00
2022-12-08T18:06:50.318Z,72.00
2022-12-08T18:09:18.619Z,72.00
2022-12-08T18:11:47.247Z,72.10
2022-12-08T18:14:17.288Z,72.10
2022-12-08T18:16:47.898Z,72.00
2022-12-08T18:19:17.275Z,72.10
2022-12-08T18:21:45.584Z,72.10
2022-12-08T18:24:19.217Z,72.10
2022-12-08T18:26:47.654Z,72.20
2022-12-08T18:29:17.532Z,72.20
2022-12-08T18:31:45.730Z,72.30
2022-12-08T18:34:13.985Z,72.30
2022-12-08T18:36:42.170Z,72.30
2022-12-08T18:39:22.244Z,72.20
2022-12-08T18:41:50.534Z,72.10
2022-12-08T18:44:20.531Z,72.30
2022-12-08T18:46:49.249Z,72.40
2022-12-08T18:49:19.923Z,72.30
2022-12-08T18:51:48.169Z,72.40
2022-12-08T18:54:16.290Z,72.40
2022-12-08T18:57:00.978Z,72.40
2022-12-08T18:59:51.603Z,72.40
2022-12-08T19:02:21.236Z,72.50
2022-12-08T19:04:52.390Z,72.60
2022-12-08T19:07:22.430Z,72.70
2022-12-08T19:09:56.525Z,72.70
2022-12-08T19:12:24.713Z,72.60
2022-12-08T19:14:54.624Z,72.70
2022-12-08T19:17:22.823Z,72.70
2022-12-08T19:19:50.996Z,72.80
2022-12-08T19:22:19.356Z,72.70
2022-12-08T19:24:47.478Z,72.50
2022-12-08T19:27:15.761Z,72.60
2022-12-08T19:29:43.952Z,72.50
2022-12-08T19:32:13.480Z,72.40
2022-12-08T19:34:42.103Z,72.60
2022-12-08T19:37:12.626Z,72.70
2022-12-08T19:39:58.934Z,72.80
2022-12-08T19:42:44.712Z,72.80
2022-12-08T19:45:17.367Z,72.80
2022-12-08T19:47:46.990Z,72.80
2022-12-08T19:50:34.888Z,72.80
2022-12-08T19:53:03.912Z,72.90
2022-12-08T19:55:32.433Z,72.80
2022-12-08T19:58:01.932Z,72.80
2022-12-08T20:00:31.412Z,72.80
2022-12-08T20:03:02.154Z,72.80
2022-12-08T20:05:31.299Z,72.80
2022-12-08T20:07:59.573Z,72.70
2022-12-08T20:10:30.676Z,72.70
2022-12-08T20:13:12.750Z,72.70
2022-12-08T20:15:41.040Z,72.80
2022-12-08T20:18:10.977Z,72.70
2022-12-08T20:20:40.254Z,72.70
2022-12-08T20:23:08.862Z,72.80
2022-12-08T20:25:39.825Z,72.60
2022-12-08T20:28:07.980Z,72.80
2022-12-08T20:30:38.972Z,72.80
2022-12-08T20:33:07.172Z,72.70
2022-12-08T20:35:36.678Z,72.70
2022-12-08T20:38:04.885Z,72.70
2022-12-08T20:40:33.099Z,73.00
2022-12-08T20:43:01.529Z,73.00
2022-12-08T20:45:29.831Z,72.90
2022-12-08T20:47:58.082Z,72.70
2022-12-08T20:50:28.439Z,72.90
2022-12-08T20:52:58.266Z,72.80
2022-12-08T20:55:26.651Z,72.70
2022-12-08T20:57:55.147Z,72.90
2022-12-08T21:00:26.042Z,73.00
2022-12-08T21:02:56.699Z,72.90
2022-12-08T21:05:25.751Z,73.00
2022-12-08T21:07:54.199Z,73.10
2022-12-08T21:10:24.023Z,73.10
2022-12-08T21:12:52.222Z,73.00
2022-12-08T21:15:20.761Z,73.10
2022-12-08T21:17:49.371Z,73.10
2022-12-08T21:20:17.852Z,73.10
2022-12-08T21:22:46.139Z,73.10
2022-12-08T21:25:14.388Z,73.10
2022-12-08T21:27:44.058Z,73.10
2022-12-08T21:30:13.322Z,73.00
2022-12-08T21:32:41.728Z,73.00
2022-12-08T21:35:10.769Z,73.10
2022-12-08T21:37:39.072Z,73.10
2022-12-08T21:40:09.224Z,73.10
2022-12-08T21:42:46.760Z,73.00
2022-12-08T21:45:18.146Z,73.00
2022-12-08T21:47:48.184Z,72.90
2022-12-08T21:50:17.225Z,72.80
2022-12-08T21:52:47.214Z,72.90
2022-12-08T21:55:16.701Z,72.90
2022-12-08T21:57:45.068Z,73.00
2022-12-08T22:00:17.826Z,73.10
2022-12-08T22:02:47.301Z,73.00
2022-12-08T22:05:15.793Z,73.00
2022-12-08T22:07:44.255Z,72.90
2022-12-08T22:10:12.778Z,72.90
2022-12-08T22:12:41.748Z,73.10
2022-12-08T22:15:11.485Z,72.90
2022-12-08T22:17:43.134Z,72.90
2022-12-08T22:20:18.323Z,72.70
2022-12-08T22:22:46.900Z,72.90
2022-12-08T22:25:15.348Z,72.90
2022-12-08T22:27:43.628Z,72.80
2022-12-08T22:30:12.934Z,72.70
2022-12-08T22:32:42.965Z,72.80
2022-12-08T22:35:12.099Z,72.70
2022-12-08T22:37:40.375Z,72.50
2022-12-08T22:40:09.803Z,72.50
2022-12-08T22:42:38.180Z,72.40
2022-12-08T22:45:07.112Z,72.40
2022-12-08T22:47:35.838Z,72.40
2022-12-08T22:50:07.206Z,72.50
2022-12-08T22:52:35.805Z,72.40
2022-12-08T22:55:03.961Z,72.50
2022-12-08T22:57:32.242Z,72.50
2022-12-08T23:00:00.536Z,72.50
2022-12-08T23:02:28.908Z,72.60
2022-12-08T23:04:57.713Z,72.70
2022-12-08T23:07:27.628Z,72.70
2022-12-08T23:09:56.053Z,72.70
2022-12-08T23:12:24.520Z,72.70
2022-12-08T23:14:52.763Z,72.90
2022-12-08T23:17:20.940Z,72.80
2022-12-08T23:19:51.081Z,72.90
2022-12-08T23:22:19.398Z,73.00
2022-12-08T23:24:49.078Z,73.00
2022-12-08T23:27:17.439Z,72.90
2022-12-08T23:29:45.841Z,73.00
2022-12-08T23:32:15.672Z,73.00
2022-12-08T23:34:48.466Z,73.00
2022-12-08T23:37:16.979Z,72.90
2022-12-08T23:39:45.210Z,72.90
2022-12-08T23:42:14.862Z,72.90
2022-12-08T23:44:43.076Z,73.00
2022-12-08T23:47:11.303Z,73.00
2022-12-08T23:49:39.520Z,73.40
2022-12-08T23:52:08.257Z,73.20
2022-12-08T23:54:36.517Z,73.10
2022-12-08T23:57:04.820Z,73.30
2022-12-08T23:59:34.490Z,73.60
